createdAt,value
2022-10-01T00:02:08.963Z,6.50
2022-10-01T00:04:37.951Z,5.90
2022-10-01T00:07:09.781Z,5.67
2022-10-01T00:09:37.724Z,6.23
2022-10-01T00:12:05.620Z,5.10
2022-10-01T00:14:33.646Z,5.10
2022-10-01T00:17:02.923Z,6.37
2022-10-01T00:19:30.991Z,6.30
2022-10-01T00:21:58.867Z,5.60
2022-10-01T00:24:26.939Z,6.20
2022-10-01T00:26:54.865Z,5.63
2022-10-01T00:29:22.724Z,7.53
2022-10-01T00:31:50.717Z,6.67
2022-10-01T00:34:20.028Z,6.90
2022-10-01T00:36:47.927Z,7.03
2022-10-01T00:39:15.966Z,7.20
2022-10-01T00:41:43.985Z,6.37
2022-10-01T00:44:33.747Z,4.93
2022-10-01T00:47:08.724Z,5.43
2022-10-01T00:49:39.245Z,5.10
2022-10-01T00:52:09.165Z,5.20
2022-10-01T00:54:41.378Z,5.07
2022-10-01T00:57:09.680Z,4.80
2022-10-01T00:59:37.993Z,5.73
2022-10-01T01:02:06.011Z,4.67
2022-10-01T01:04:34.004Z,4.60
2022-10-01T01:07:05.608Z,4.63
2022-10-01T01:09:35.554Z,6.90
2022-10-01T01:12:11.270Z,5.37
2022-10-01T01:14:43.401Z,5.23
2022-10-01T01:17:14.761Z,6.17
2022-10-01T01:19:53.216Z,6.47
2022-10-01T01:22:24.492Z,6.23
2022-10-01T01:24:57.001Z,7.30
2022-10-01T01:27:32.464Z,6.63
2022-10-01T01:30:05.153Z,7.00
2022-10-01T01:32:41.834Z,5.30
2022-10-01T01:35:11.621Z,4.50
2022-10-01T01:37:42.109Z,5.17
2022-10-01T01:40:12.228Z,4.70
2022-10-01T01:42:42.253Z,6.33
2022-10-01T01:45:15.898Z,5.40
2022-10-01T01:47:44.252Z,5.47
2022-10-01T01:50:14.480Z,5.23
2022-10-01T01:52:42.418Z,5.67
2022-10-01T01:55:11.144Z,5.70
2022-10-01T01:57:41.008Z,5.80
2022-10-01T02:00:11.493Z,5.60
2022-10-01T02:02:42.123Z,5.40
2022-10-01T02:05:11.671Z,5.00
2022-10-01T02:08:03.961Z,6.10
2022-10-01T02:10:39.086Z,5.73
2022-10-01T02:13:24.293Z,5.40
2022-10-01T02:16:01.476Z,4.80
2022-10-01T02:18:40.728Z,5.50
2022-10-01T02:21:12.365Z,6.27
2022-10-01T02:23:44.029Z,6.00
2022-10-01T02:26:14.117Z,5.53
2022-10-01T02:28:42.779Z,6.63
2022-10-01T02:31:12.527Z,6.00
2022-10-01T02:33:43.807Z,5.20
2022-10-01T02:36:12.886Z,5.40
2022-10-01T02:38:43.238Z,4.67
2022-10-01T02:41:12.713Z,5.67
2022-10-01T02:43:43.856Z,5.97
2022-10-01T02:46:15.866Z,5.93
2022-10-01T02:48:45.341Z,5.77
2022-10-01T02:51:26.007Z,5.73
2022-10-01T02:53:57.044Z,5.53
2022-10-01T02:56:48.441Z,5.17
2022-10-01T02:59:16.788Z,5.77
2022-10-01T03:01:44.934Z,6.70
2022-10-01T03:04:14.259Z,6.50
2022-10-01T03:06:42.149Z,8.60
2022-10-01T03:09:10.023Z,29.90
2022-10-01T03:11:38.125Z,12.40
2022-10-01T03:14:06.695Z,6.60
2022-10-01T03:16:34.737Z,7.80
2022-10-01T03:19:02.662Z,9.47
2022-10-01T03:21:32.217Z,6.13
2022-10-01T03:24:00.368Z,6.03
2022-10-01T03:26:28.249Z,6.00
2022-10-01T03:28:56.165Z,8.60
2022-10-01T03:31:24.081Z,13.87
2022-10-01T03:33:52.053Z,13.17
2022-10-01T03:36:19.975Z,6.07
2022-10-01T03:38:49.254Z,5.77
2022-10-01T03:41:17.119Z,6.73
2022-10-01T03:43:45.026Z,6.43
2022-10-01T03:46:13.012Z,6.00
2022-10-01T03:48:40.963Z,5.47
2022-10-01T03:51:08.850Z,5.73
2022-10-01T03:53:37.144Z,5.80
2022-10-01T03:56:06.774Z,6.30
2022-10-01T03:58:34.713Z,6.70
2022-10-01T04:01:02.947Z,6.87
2022-10-01T04:03:31.453Z,5.67
2022-10-01T04:05:59.658Z,22.47
2022-10-01T04:08:27.613Z,7.80
2022-10-01T04:10:55.622Z,5.73
2022-10-01T04:13:24.956Z,5.83
2022-10-01T04:15:52.885Z,6.17
2022-10-01T04:18:21.642Z,5.57
2022-10-01T04:20:49.957Z,6.30
2022-10-01T04:23:17.857Z,6.27
2022-10-01T04:25:45.877Z,19.43
2022-10-01T04:28:14.919Z,10.70
2022-10-01T04:30:45.378Z,7.60
2022-10-01T04:33:14.687Z,8.60
2022-10-01T04:35:43.356Z,8.53
2022-10-01T04:38:14.181Z,6.10
2022-10-01T04:40:42.475Z,7.00
2022-10-01T04:43:10.698Z,6.83
2022-10-01T04:45:38.831Z,9.13
2022-10-01T04:48:08.170Z,6.03
2022-10-01T04:50:36.070Z,5.80
2022-10-01T04:53:04.165Z,6.10
2022-10-01T04:55:32.137Z,6.90
2022-10-01T04:58:00.078Z,6.37
2022-10-01T05:00:28.084Z,7.73
2022-10-01T05:02:56.192Z,7.93
2022-10-01T05:05:28.165Z,8.83
2022-10-01T05:07:56.221Z,8.13
2022-10-01T05:10:24.969Z,8.20
2022-10-01T05:12:52.897Z,7.93
2022-10-01T05:15:21.085Z,8.80
2022-10-01T05:17:48.984Z,9.27
2022-10-01T05:20:18.089Z,8.80
2022-10-01T05:22:48.999Z,8.70
2022-10-01T05:25:17.730Z,8.13
2022-10-01T05:27:46.006Z,7.30
2022-10-01T05:30:22.214Z,9.90
2022-10-01T05:32:55.847Z,9.43
2022-10-01T05:35:23.760Z,6.40
2022-10-01T05:37:55.961Z,7.57
2022-10-01T05:40:27.635Z,8.00
2022-10-01T05:42:56.520Z,6.70
2022-10-01T05:45:24.624Z,7.90
2022-10-01T05:48:00.008Z,7.63
2022-10-01T05:50:28.769Z,7.00
2022-10-01T05:52:58.136Z,7.07
2022-10-01T05:55:26.097Z,7.43
2022-10-01T05:57:58.369Z,7.27
2022-10-01T06:00:28.118Z,7.20
2022-10-01T06:02:57.019Z,38.33
2022-10-01T06:05:25.775Z,16.50
2022-10-01T06:07:54.014Z,7.20
2022-10-01T06:10:23.802Z,6.90
2022-10-01T06:12:51.944Z,7.00
2022-10-01T06:15:20.128Z,8.30
2022-10-01T06:17:48.059Z,7.03
2022-10-01T06:20:19.188Z,7.83
2022-10-01T06:22:54.963Z,8.13
2022-10-01T06:25:24.484Z,9.37
2022-10-01T06:27:58.078Z,7.67
2022-10-01T06:30:27.253Z,7.47
2022-10-01T06:32:55.287Z,7.00
2022-10-01T06:35:23.185Z,7.70
2022-10-01T06:37:51.504Z,6.73
2022-10-01T06:40:19.385Z,5.13
2022-10-01T06:42:53.686Z,4.80
2022-10-01T06:45:23.954Z,5.60
2022-10-01T06:47:55.338Z,7.73
2022-10-01T06:50:23.706Z,7.07
2022-10-01T06:52:51.811Z,10.47
2022-10-01T06:55:20.837Z,10.63
2022-10-01T06:57:55.618Z,11.30
2022-10-01T07:00:23.785Z,11.20
2022-10-01T07:02:52.085Z,18.47
2022-10-01T07:05:20.004Z,16.37
2022-10-01T07:07:48.414Z,28.70
2022-10-01T07:10:17.632Z,12.97
2022-10-01T07:12:46.156Z,13.70
2022-10-01T07:15:15.798Z,22.07
2022-10-01T07:17:45.383Z,20.90
2022-10-01T07:20:14.833Z,15.57
2022-10-01T07:22:42.781Z,18.20
2022-10-01T07:25:10.965Z,16.40
2022-10-01T07:27:39.153Z,13.10
2022-10-01T07:30:08.696Z,10.57
2022-10-01T07:32:37.974Z,9.67
2022-10-01T07:35:06.907Z,9.27
2022-10-01T07:37:34.868Z,8.80
2022-10-01T07:40:07.175Z,7.83
2022-10-01T07:42:35.511Z,8.70
2022-10-01T07:45:06.725Z,8.30
2022-10-01T07:47:34.662Z,7.67
2022-10-01T07:50:04.314Z,9.97
2022-10-01T07:52:32.213Z,9.00
2022-10-01T07:55:00.150Z,9.67
2022-10-01T07:57:28.061Z,8.53
2022-10-01T08:00:14.440Z,7.93
2022-10-01T08:03:01.406Z,7.40
2022-10-01T08:05:49.623Z,7.50
2022-10-01T08:08:20.427Z,8.70
2022-10-01T08:10:50.131Z,9.00
2022-10-01T08:13:18.804Z,10.33
2022-10-01T08:15:50.533Z,8.13
2022-10-01T08:18:18.535Z,7.90
2022-10-01T08:20:48.319Z,6.63
2022-10-01T08:23:17.436Z,7.60
2022-10-01T08:25:47.769Z,7.80
2022-10-01T08:28:16.391Z,8.00
2022-10-01T08:30:44.649Z,7.07
2022-10-01T08:33:13.554Z,7.20
2022-10-01T08:35:43.428Z,7.13
2022-10-01T08:38:13.470Z,7.40
2022-10-01T08:40:44.329Z,6.70
2022-10-01T08:43:15.248Z,7.00
2022-10-01T08:45:47.347Z,7.30
2022-10-01T08:48:23.519Z,8.17
2022-10-01T08:50:53.813Z,7.30
2022-10-01T08:53:31.460Z,8.17
2022-10-01T08:55:59.942Z,7.10
2022-10-01T08:58:32.966Z,7.20
2022-10-01T09:01:00.948Z,8.03
2022-10-01T09:03:31.957Z,8.10
2022-10-01T09:06:11.478Z,8.27
2022-10-01T09:08:50.654Z,8.27
2022-10-01T09:11:33.364Z,9.30
2022-10-01T09:14:15.075Z,9.40
2022-10-01T09:16:48.298Z,10.50
2022-10-01T09:19:28.066Z,10.93
2022-10-01T09:21:58.969Z,11.27
2022-10-01T09:24:40.684Z,11.30
2022-10-01T09:27:13.572Z,11.37
2022-10-01T09:29:45.193Z,10.10
2022-10-01T09:32:15.654Z,10.40
2022-10-01T09:34:44.270Z,9.90
2022-10-01T09:37:18.618Z,9.97
2022-10-01T09:40:05.793Z,7.47
2022-10-01T09:42:34.104Z,6.40
2022-10-01T09:45:01.984Z,5.47
2022-10-01T09:47:29.893Z,6.70
2022-10-01T09:50:00.024Z,6.67
2022-10-01T09:52:31.908Z,6.93
2022-10-01T09:55:05.299Z,6.50
2022-10-01T09:57:35.168Z,5.20
2022-10-01T10:00:09.954Z,5.80
2022-10-01T10:02:48.234Z,5.43
2022-10-01T10:05:18.768Z,4.97
2022-10-01T10:07:47.701Z,5.83
2022-10-01T10:10:25.479Z,6.00
2022-10-01T10:12:57.585Z,5.57
2022-10-01T10:15:27.302Z,5.60
2022-10-01T10:17:55.845Z,5.73
2022-10-01T10:20:26.979Z,5.47
2022-10-01T10:22:54.973Z,6.10
2022-10-01T10:25:25.718Z,5.20
2022-10-01T10:27:56.130Z,5.80
2022-10-01T10:30:26.292Z,5.17
2022-10-01T10:32:55.107Z,5.20
2022-10-01T10:35:26.593Z,4.80
2022-10-01T10:37:57.263Z,5.63
2022-10-01T10:40:29.645Z,6.47
2022-10-01T10:42:59.144Z,6.80
2022-10-01T10:45:33.210Z,6.87
2022-10-01T10:48:02.745Z,7.00
2022-10-01T10:50:36.638Z,6.87
2022-10-01T10:53:18.841Z,7.13
2022-10-01T10:55:56.745Z,7.27
2022-10-01T10:58:27.081Z,6.83
2022-10-01T11:00:57.705Z,6.87
2022-10-01T11:03:28.099Z,7.53
2022-10-01T11:05:58.087Z,6.60
2022-10-01T11:08:27.877Z,6.27
2022-10-01T11:11:06.655Z,6.40
2022-10-01T11:13:52.862Z,5.73
2022-10-01T11:16:30.315Z,5.07
2022-10-01T11:19:07.780Z,5.93
2022-10-01T11:21:50.208Z,5.33
2022-10-01T11:24:49.864Z,5.07
2022-10-01T11:27:24.421Z,5.70
2022-10-01T11:30:02.441Z,6.20
2022-10-01T11:32:36.670Z,6.30
2022-10-01T11:35:29.880Z,6.00
2022-10-01T11:38:06.633Z,6.50
2022-10-01T11:40:37.203Z,5.87
2022-10-01T11:43:14.175Z,6.00
2022-10-01T11:45:45.072Z,6.70
2022-10-01T11:48:15.776Z,5.40
2022-10-01T11:50:45.489Z,5.50
2022-10-01T11:53:16.593Z,5.73
2022-10-01T11:56:05.378Z,6.10
2022-10-01T11:58:52.505Z,5.20
2022-10-01T12:01:26.702Z,5.43
2022-10-01T12:04:11.298Z,5.53
2022-10-01T12:06:42.898Z,5.00
2022-10-01T12:09:15.799Z,5.17
2022-10-01T12:11:47.670Z,5.60
2022-10-01T12:14:19.956Z,5.10
2022-10-01T12:16:52.884Z,5.00
2022-10-01T12:19:23.168Z,5.17
2022-10-01T12:21:54.487Z,4.60
2022-10-01T12:24:25.733Z,4.50
2022-10-01T12:27:03.385Z,4.80
2022-10-01T12:29:39.495Z,4.37
2022-10-01T12:32:15.003Z,4.67
2022-10-01T12:34:54.224Z,4.60
2022-10-01T12:37:34.509Z,5.00
2022-10-01T12:40:11.303Z,4.83
2022-10-01T12:43:04.490Z,4.80
2022-10-01T12:45:44.495Z,4.90
2022-10-01T12:48:16.684Z,4.60
2022-10-01T12:50:50.997Z,5.63
2022-10-01T12:53:27.093Z,4.57
2022-10-01T12:56:09.116Z,5.00
2022-10-01T12:59:09.586Z,4.73
2022-10-01T13:01:56.309Z,4.33
2022-10-01T13:04:59.562Z,4.43
2022-10-01T13:07:42.662Z,4.57
2022-10-01T13:10:19.330Z,3.80
2022-10-01T13:12:58.025Z,4.50
2022-10-01T13:15:30.201Z,4.80
2022-10-01T13:18:05.674Z,4.27
2022-10-01T13:20:41.186Z,4.13
2022-10-01T13:23:13.839Z,4.50
2022-10-01T13:25:47.866Z,4.53
2022-10-01T13:28:20.179Z,4.03
2022-10-01T13:30:59.169Z,4.30
2022-10-01T13:33:29.830Z,4.90
2022-10-01T13:36:00.168Z,4.47
2022-10-01T13:38:30.988Z,4.77
2022-10-01T13:41:01.431Z,4.67
2022-10-01T13:43:29.868Z,5.10
2022-10-01T13:46:06.033Z,4.20
2022-10-01T13:48:37.085Z,4.27
2022-10-01T13:51:07.355Z,4.60
2022-10-01T13:53:38.232Z,4.10
2022-10-01T13:56:06.754Z,4.77
2022-10-01T13:58:38.734Z,4.07
2022-10-01T14:01:15.033Z,4.20
2022-10-01T14:03:50.635Z,4.40
2022-10-01T14:06:20.937Z,3.90
2022-10-01T14:08:52.361Z,3.87
2022-10-01T14:11:42.516Z,3.90
2022-10-01T14:14:30.821Z,3.50
2022-10-01T14:16:59.128Z,3.50
2022-10-01T14:19:29.509Z,3.10
2022-10-01T14:22:05.888Z,3.57
2022-10-01T14:24:42.488Z,3.23
2022-10-01T14:27:16.472Z,3.30
2022-10-01T14:29:55.242Z,3.10
2022-10-01T14:32:31.060Z,3.20
2022-10-01T14:35:10.208Z,2.30
2022-10-01T14:37:38.865Z,2.77
2022-10-01T14:40:24.346Z,2.43
2022-10-01T14:43:00.017Z,3.40
2022-10-01T14:45:28.430Z,3.00
2022-10-01T14:48:03.520Z,2.80
2022-10-01T14:50:34.053Z,3.07
2022-10-01T14:53:02.341Z,2.60
2022-10-01T14:55:32.256Z,2.77
2022-10-01T14:58:00.453Z,2.70
2022-10-01T15:00:29.837Z,2.60
2022-10-01T15:03:04.774Z,2.87
2022-10-01T15:05:34.263Z,2.90
2022-10-01T15:08:07.630Z,2.40
2022-10-01T15:10:37.279Z,2.57
2022-10-01T15:13:05.722Z,2.50
2022-10-01T15:15:35.638Z,2.07
2022-10-01T15:18:05.032Z,2.73
2022-10-01T15:20:33.229Z,2.87
2022-10-01T15:23:01.776Z,2.50
2022-10-01T15:25:31.403Z,3.03
2022-10-01T15:28:00.843Z,3.33
2022-10-01T15:30:29.192Z,2.70
2022-10-01T15:32:57.588Z,2.07
2022-10-01T15:35:26.352Z,2.27
2022-10-01T15:37:55.359Z,2.10
2022-10-01T15:40:27.389Z,1.80
2022-10-01T15:43:17.004Z,3.27
2022-10-01T15:45:44.930Z,2.70
2022-10-01T15:48:31.013Z,3.43
2022-10-01T15:51:03.714Z,1.73
2022-10-01T15:53:31.932Z,2.53
2022-10-01T15:56:01.361Z,2.50
2022-10-01T15:58:32.490Z,2.57
2022-10-01T16:01:03.072Z,2.30
2022-10-01T16:03:33.843Z,1.37
2022-10-01T16:06:03.185Z,1.40
2022-10-01T16:08:34.932Z,1.67
2022-10-01T16:11:15.909Z,1.47
2022-10-01T16:13:46.752Z,1.23
2022-10-01T16:16:24.023Z,1.13
2022-10-01T16:18:58.569Z,1.20
2022-10-01T16:21:27.030Z,1.27
2022-10-01T16:23:55.653Z,1.33
2022-10-01T16:26:44.881Z,1.30
2022-10-01T16:29:26.918Z,1.90
2022-10-01T16:31:54.999Z,2.03
2022-10-01T16:34:22.973Z,2.00
2022-10-01T16:36:51.127Z,2.30
2022-10-01T16:39:19.011Z,2.63
2022-10-01T16:42:06.396Z,2.10
2022-10-01T16:44:39.763Z,1.50
2022-10-01T16:47:08.243Z,1.17
2022-10-01T16:49:36.154Z,2.90
2022-10-01T16:52:04.082Z,2.50
2022-10-01T16:54:31.972Z,3.73
2022-10-01T16:57:00.470Z,4.13
2022-10-01T16:59:28.413Z,4.53
2022-10-01T17:01:58.300Z,2.77
2022-10-01T17:04:29.219Z,1.57
2022-10-01T17:06:59.417Z,2.30
2022-10-01T17:09:27.353Z,1.70
2022-10-01T17:11:55.574Z,1.73
2022-10-01T17:14:24.295Z,1.73
2022-10-01T17:16:53.555Z,1.80
2022-10-01T17:19:22.989Z,2.07
2022-10-01T17:21:50.975Z,1.70
2022-10-01T17:24:18.889Z,2.00
2022-10-01T17:26:47.548Z,1.57
2022-10-01T17:29:15.433Z,1.67
2022-10-01T17:31:44.948Z,1.50
2022-10-01T17:34:13.195Z,1.63
2022-10-01T17:36:42.453Z,1.80
2022-10-01T17:39:10.377Z,2.33
2022-10-01T17:41:38.347Z,1.90
2022-10-01T17:44:06.304Z,1.70
2022-10-01T17:46:34.469Z,1.87
2022-10-01T17:49:02.506Z,1.53
2022-10-01T17:51:30.486Z,1.80
2022-10-01T17:54:02.473Z,1.50
2022-10-01T17:56:32.601Z,1.53
2022-10-01T17:59:00.876Z,1.90
2022-10-01T18:01:28.926Z,1.87
2022-10-01T18:03:57.570Z,1.60
2022-10-01T18:06:26.883Z,1.33
2022-10-01T18:08:56.223Z,1.57
2022-10-01T18:11:26.863Z,2.23
2022-10-01T18:13:54.984Z,1.87
2022-10-01T18:16:23.619Z,1.70
2022-10-01T18:21:43.741Z,2.27
2022-10-01T18:24:11.854Z,2.70
2022-10-01T18:26:41.113Z,2.93
2022-10-01T18:29:09.030Z,3.10
2022-10-01T18:31:38.415Z,3.00
2022-10-01T18:34:13.520Z,2.43
2022-10-01T18:36:43.937Z,3.00
2022-10-01T18:39:15.639Z,2.57
2022-10-01T18:41:45.135Z,2.80
2022-10-01T18:44:19.989Z,3.13
2022-10-01T18:46:58.708Z,2.40
2022-10-01T18:49:49.603Z,2.97
2022-10-01T18:52:25.230Z,2.10
2022-10-01T18:55:27.245Z,2.50
2022-10-01T18:58:24.925Z,2.53
2022-10-01T19:01:01.715Z,2.50
2022-10-01T19:04:00.222Z,2.57
2022-10-01T19:06:45.063Z,2.40
2022-10-01T19:09:25.646Z,3.03
2022-10-01T19:12:03.382Z,1.83
2022-10-01T19:14:47.853Z,1.93
2022-10-01T19:17:24.945Z,2.03
2022-10-01T19:20:01.570Z,1.83
2022-10-01T19:22:36.490Z,2.50
2022-10-01T19:25:12.714Z,1.70
2022-10-01T19:27:50.628Z,1.53
2022-10-01T19:30:20.384Z,1.40
2022-10-01T19:32:51.239Z,1.73
2022-10-01T19:35:21.042Z,1.90
2022-10-01T19:37:52.155Z,2.00
2022-10-01T19:40:26.354Z,2.20
2022-10-01T19:43:00.503Z,1.53
2022-10-01T19:45:32.012Z,1.70
2022-10-01T19:48:07.983Z,1.87
2022-10-01T19:50:39.021Z,1.73
2022-10-01T19:53:14.276Z,1.33
2022-10-01T19:55:42.217Z,1.43
2022-10-01T19:58:15.896Z,1.60
2022-10-01T20:00:47.377Z,1.60
2022-10-01T20:03:20.990Z,1.63
2022-10-01T20:05:52.969Z,1.43
2022-10-01T20:08:28.949Z,1.60
2022-10-01T20:10:59.243Z,2.20
2022-10-01T20:13:41.249Z,1.50
2022-10-01T20:16:18.117Z,1.67
2022-10-01T20:18:51.723Z,1.90
2022-10-01T20:21:29.772Z,1.70
2022-10-01T20:24:03.657Z,1.90
2022-10-01T20:26:38.747Z,1.60
2022-10-01T20:29:28.668Z,2.53
2022-10-01T20:32:01.977Z,1.50
2022-10-01T20:34:37.613Z,1.83
2022-10-01T20:37:16.736Z,1.50
2022-10-01T20:39:49.400Z,2.40
2022-10-01T20:42:20.797Z,1.47
2022-10-01T20:44:48.982Z,1.60
2022-10-01T20:47:22.149Z,1.80
2022-10-01T20:49:53.773Z,1.70
2022-10-01T20:52:27.536Z,1.97
2022-10-01T20:55:00.425Z,1.67
2022-10-01T20:57:32.695Z,1.50
2022-10-01T21:00:07.723Z,1.50
2022-10-01T21:02:41.255Z,1.70
2022-10-01T21:05:14.033Z,1.50
2022-10-01T21:07:51.322Z,1.80
2022-10-01T21:10:26.666Z,1.70
2022-10-01T21:13:00.730Z,1.87
2022-10-01T21:15:37.301Z,2.27
2022-10-01T21:18:10.401Z,3.00
2022-10-01T21:20:49.168Z,1.80
2022-10-01T21:23:27.626Z,2.23
2022-10-01T21:26:06.405Z,1.60
2022-10-01T21:28:51.547Z,1.77
2022-10-01T21:31:30.543Z,2.50
2022-10-01T21:34:03.581Z,1.73
2022-10-01T21:36:35.604Z,1.80
2022-10-01T21:39:10.576Z,1.70
2022-10-01T21:41:53.872Z,1.50
2022-10-01T21:44:49.565Z,1.47
2022-10-01T21:47:20.946Z,1.50
2022-10-01T21:49:57.550Z,1.40
2022-10-01T21:52:33.998Z,1.60
2022-10-01T21:55:13.491Z,1.60
2022-10-01T21:57:53.582Z,1.40
2022-10-01T22:00:25.908Z,1.43
2022-10-01T22:03:12.020Z,1.70
2022-10-01T22:05:45.745Z,1.63
2022-10-01T22:08:30.718Z,1.77
2022-10-01T22:11:02.016Z,1.70
2022-10-01T22:13:33.111Z,1.90
2022-10-01T22:16:04.967Z,1.60
2022-10-01T22:18:35.638Z,1.70
2022-10-01T22:21:09.781Z,1.97
2022-10-01T22:23:38.754Z,1.77
2022-10-01T22:26:11.908Z,1.87
2022-10-01T22:28:42.185Z,1.37
2022-10-01T22:31:14.336Z,1.70
2022-10-01T22:33:46.554Z,1.37
2022-10-01T22:36:21.066Z,1.37
2022-10-01T22:38:54.112Z,1.20
2022-10-01T22:41:27.407Z,1.23
2022-10-01T22:43:55.487Z,1.00
2022-10-01T22:46:56.184Z,1.00
2022-10-01T22:49:32.258Z,1.10
2022-10-01T22:52:09.529Z,0.90
2022-10-01T22:54:45.337Z,1.23
2022-10-01T22:57:26.500Z,0.87
2022-10-01T23:00:02.920Z,1.20
2022-10-01T23:02:36.092Z,1.37
2022-10-01T23:05:13.264Z,1.10
2022-10-01T23:07:48.232Z,1.00
2022-10-01T23:10:20.370Z,1.40
2022-10-01T23:12:55.570Z,0.70
2022-10-01T23:15:30.785Z,1.23
2022-10-01T23:18:07.232Z,1.10
2022-10-01T23:20:40.482Z,1.20
2022-10-01T23:23:22.357Z,0.83
2022-10-01T23:26:10.018Z,1.10
2022-10-01T23:28:44.815Z,1.13
2022-10-01T23:31:21.949Z,1.50
2022-10-01T23:33:56.110Z,1.20
2022-10-01T23:36:34.132Z,1.07
2022-10-01T23:39:43.442Z,1.30
2022-10-01T23:42:20.219Z,1.20
2022-10-01T23:44:51.881Z,2.10
2022-10-01T23:47:24.701Z,0.90
2022-10-01T23:49:55.022Z,0.90
2022-10-01T23:52:29.561Z,1.40
2022-10-01T23:55:23.326Z,0.97
2022-10-01T23:57:53.010Z,1.60
